sensor_id;sensor_type;location;lat;lon;timestamp;pressure;altitude;pressure_sealevel;temperature;humidity
13050;BME280;6591;51.446;5.404;2023-05-11T00:01:15;101108.66;;;19.17;60.65
13050;BME280;6591;51.446;5.404;2023-05-11T00:03:42;101108.66;;;19.17;60.63
13050;BME280;6591;51.446;5.404;2023-05-11T00:06:09;101110.41;;;19.18;60.58
13050;BME280;6591;51.446;5.404;2023-05-11T00:08:36;101106.84;;;19.18;60.52
13050;BME280;6591;51.446;5.404;2023-05-11T00:11:07;101106.09;;;19.16;60.40
13050;BME280;6591;51.446;5.404;2023-05-11T00:13:34;101103.53;;;19.14;60.56
13050;BME280;6591;51.446;5.404;2023-05-11T00:16:01;101103.53;;;19.14;60.38
13050;BME280;6591;51.446;5.404;2023-05-11T00:18:29;101106.22;;;19.14;60.46
13050;BME280;6591;51.446;5.404;2023-05-11T00:20:56;101100.94;;;19.13;60.63
13050;BME280;6591;51.446;5.404;2023-05-11T00:23:23;101100.94;;;19.13;60.50
13050;BME280;6591;51.446;5.404;2023-05-11T00:25:50;101100.09;;;19.12;60.62
13050;BME280;6591;51.446;5.404;2023-05-11T00:28:17;101105.47;;;19.12;60.73
13050;BME280;6591;51.446;5.404;2023-05-11T00:30:44;101102.06;;;19.10;60.54
13050;BME280;6591;51.446;5.404;2023-05-11T00:33:11;101113.81;;;19.09;60.63
13050;BME280;6591;51.446;5.404;2023-05-11T00:35:38;101115.63;;;19.09;60.44
13050;BME280;6591;51.446;5.404;2023-05-11T00:38:06;101111.22;;;19.08;60.80
13050;BME280;6591;51.446;5.404;2023-05-11T00:40:33;101113.03;;;19.07;60.67
13050;BME280;6591;51.446;5.404;2023-05-11T00:43:00;101114.88;;;19.07;60.87
13050;BME280;6591;51.446;5.404;2023-05-11T00:45:28;101115.75;;;19.07;60.67
13050;BME280;6591;51.446;5.404;2023-05-11T00:47:55;101111.22;;;19.08;60.80
13050;BME280;6591;51.446;5.404;2023-05-11T00:50:24;101112.84;;;19.10;60.76
13050;BME280;6591;51.446;5.404;2023-05-11T00:52:51;101117.34;;;19.10;60.74
13050;BME280;6591;51.446;5.404;2023-05-11T00:55:19;101120.91;;;19.10;61.06
13050;BME280;6591;51.446;5.404;2023-05-11T00:57:49;101122.59;;;19.11;60.92
13050;BME280;6591;51.446;5.404;2023-05-11T01:00:16;101125.19;;;19.13;60.41
13050;BME280;6591;51.446;5.404;2023-05-11T01:02:44;101117.97;;;19.13;60.65
13050;BME280;6591;51.446;5.404;2023-05-11T01:05:12;101121.41;;;19.15;60.72
13050;BME280;6591;51.446;5.404;2023-05-11T01:07:59;101117.22;;;19.11;60.77
13050;BME280;6591;51.446;5.404;2023-05-11T01:10:45;101117.34;;;19.10;60.64
13050;BME280;6591;51.446;5.404;2023-05-11T01:13:29;101116.50;;;19.09;60.66
13050;BME280;6591;51.446;5.404;2023-05-11T01:16:01;101117.22;;;19.11;60.74
13050;BME280;6591;51.446;5.404;2023-05-11T01:18:48;101119.28;;;19.08;60.59
13050;BME280;6591;51.446;5.404;2023-05-11T01:21:17;101119.03;;;19.11;60.65
13050;BME280;6591;51.446;5.404;2023-05-11T01:24:31;101114.38;;;19.01;60.79
13050;BME280;6591;51.446;5.404;2023-05-11T01:27:35;101113.75;;;18.98;60.92
13050;BME280;6591;51.446;5.404;2023-05-11T01:32:57;101123.56;;;18.99;60.99
13050;BME280;6591;51.446;5.404;2023-05-11T01:35:32;101121.72;;;18.99;61.09
13050;BME280;6591;51.446;5.404;2023-05-11T01:38:05;101122.56;;;19.00;60.96
13050;BME280;6591;51.446;5.404;2023-05-11T01:40:40;101125.25;;;19.00;60.95
13050;BME280;6591;51.446;5.404;2023-05-11T01:43:16;101124.53;;;18.98;61.03
13050;BME280;6591;51.446;5.404;2023-05-11T01:45:48;101124.41;;;18.99;61.09
13050;BME280;6591;51.446;5.404;2023-05-11T01:48:22;101121.72;;;18.99;60.98
13050;BME280;6591;51.446;5.404;2023-05-11T01:50:52;101119.03;;;18.99;61.07
13050;BME280;6591;51.446;5.404;2023-05-11T01:53:27;101120.00;;;18.98;60.94
13050;BME280;6591;51.446;5.404;2023-05-11T01:55:56;101121.84;;;18.98;60.99
13050;BME280;6591;51.446;5.404;2023-05-11T01:58:26;101121.94;;;18.96;60.93
13050;BME280;6591;51.446;5.404;2023-05-11T02:00:54;101118.53;;;18.94;60.86
13050;BME280;6591;51.446;5.404;2023-05-11T02:03:24;101124.88;;;18.93;61.00
13050;BME280;6591;51.446;5.404;2023-05-11T02:05:56;101120.56;;;18.91;60.76
13050;BME280;6591;51.446;5.404;2023-05-11T02:08:25;101121.53;;;18.90;61.10
13050;BME280;6591;51.446;5.404;2023-05-11T02:10:54;101118.97;;;18.88;60.90
13050;BME280;6591;51.446;5.404;2023-05-11T02:13:23;101110.16;;;18.86;60.89
13050;BME280;6591;51.446;5.404;2023-05-11T02:15:54;101117.25;;;18.87;61.08
13050;BME280;6591;51.446;5.404;2023-05-11T02:18:22;101116.41;;;18.87;61.19
13050;BME280;6591;51.446;5.404;2023-05-11T02:20:57;101117.47;;;18.84;61.04
13050;BME280;6591;51.446;5.404;2023-05-11T02:23:29;101113.19;;;18.82;60.66
13050;BME280;6591;51.446;5.404;2023-05-11T02:25:57;101107.91;;;18.80;60.86
13050;BME280;6591;51.446;5.404;2023-05-11T02:28:25;101108.06;;;18.79;60.96
13050;BME280;6591;51.446;5.404;2023-05-11T02:30:58;101111.94;;;18.75;60.92
13050;BME280;6591;51.446;5.404;2023-05-11T02:33:33;101112.78;;;18.75;61.11
13050;BME280;6591;51.446;5.404;2023-05-11T02:36:02;101115.38;;;18.77;61.17
13050;BME280;6591;51.446;5.404;2023-05-11T02:38:34;101109.25;;;18.75;60.82
13050;BME280;6591;51.446;5.404;2023-05-11T02:41:10;101115.84;;;18.71;60.85
13050;BME280;6591;51.446;5.404;2023-05-11T02:43:46;101108.00;;;18.68;61.14
13050;BME280;6591;51.446;5.404;2023-05-11T02:46:27;101106.38;;;18.65;60.81
13050;BME280;6591;51.446;5.404;2023-05-11T02:48:59;101112.63;;;18.66;60.62
13050;BME280;6591;51.446;5.404;2023-05-11T02:51:35;101109.19;;;18.63;60.74
13050;BME280;6591;51.446;5.404;2023-05-11T02:54:08;101109.31;;;18.62;60.22
13050;BME280;6591;51.446;5.404;2023-05-11T02:56:40;101112.13;;;18.60;60.83
13050;BME280;6591;51.446;5.404;2023-05-11T02:59:09;101111.50;;;18.57;60.01
13050;BME280;6591;51.446;5.404;2023-05-11T03:01:38;101110.19;;;18.50;60.04
13050;BME280;6591;51.446;5.404;2023-05-11T03:04:05;101111.41;;;18.46;59.81
13050;BME280;6591;51.446;5.404;2023-05-11T03:06:33;101106.47;;;18.40;60.16
13050;BME280;6591;51.446;5.404;2023-05-11T03:09:04;101114.09;;;18.33;59.75
13050;BME280;6591;51.446;5.404;2023-05-11T03:11:40;101114.56;;;18.27;59.96
13050;BME280;6591;51.446;5.404;2023-05-11T03:14:08;101116.63;;;18.24;59.77
13050;BME280;6591;51.446;5.404;2023-05-11T03:16:37;101121.56;;;18.17;59.88
13050;BME280;6591;51.446;5.404;2023-05-11T03:19:06;101120.94;;;18.13;59.99
13050;BME280;6591;51.446;5.404;2023-05-11T03:21:37;101125.69;;;18.10;59.84
13050;BME280;6591;51.446;5.404;2023-05-11T03:24:06;101117.97;;;18.05;60.07
13050;BME280;6591;51.446;5.404;2023-05-11T03:26:35;101127.09;;;18.03;59.92
13050;BME280;6591;51.446;5.404;2023-05-11T03:29:03;101128.19;;;18.00;59.87
13050;BME280;6591;51.446;5.404;2023-05-11T03:31:33;101134.63;;;17.98;60.02
13050;BME280;6591;51.446;5.404;2023-05-11T03:34:00;101132.19;;;17.95;59.71
13050;BME280;6591;51.446;5.404;2023-05-11T03:36:31;101120.75;;;17.91;60.13
13050;BME280;6591;51.446;5.404;2023-05-11T03:39:01;101128.09;;;17.89;60.00
13050;BME280;6591;51.446;5.404;2023-05-11T03:41:33;101127.44;;;17.86;59.91
13050;BME280;6591;51.446;5.404;2023-05-11T03:44:04;101124.00;;;17.84;60.30
13050;BME280;6591;51.446;5.404;2023-05-11T03:46:37;101121.44;;;17.82;60.05
13050;BME280;6591;51.446;5.404;2023-05-11T03:49:08;101132.16;;;17.82;60.83
13050;BME280;6591;51.446;5.404;2023-05-11T03:51:39;101127.75;;;17.81;60.64
13050;BME280;6591;51.446;5.404;2023-05-11T03:54:07;101126.91;;;17.81;60.67
13050;BME280;6591;51.446;5.404;2023-05-11T03:56:37;101124.22;;;17.81;60.75
13050;BME280;6591;51.446;5.404;2023-05-11T03:59:04;101123.34;;;17.80;60.81
13050;BME280;6591;51.446;5.404;2023-05-11T04:01:32;101120.47;;;17.83;60.92
13050;BME280;6591;51.446;5.404;2023-05-11T04:03:59;101127.44;;;17.86;60.95
13050;BME280;6591;51.446;5.404;2023-05-11T04:06:27;101120.38;;;17.85;61.00
13050;BME280;6591;51.446;5.404;2023-05-11T04:09:05;101117.69;;;17.85;60.66
13050;BME280;6591;51.446;5.404;2023-05-11T04:11:36;101115.94;;;17.84;60.93
13050;BME280;6591;51.446;5.404;2023-05-11T04:14:04;101123.88;;;17.85;60.85
13050;BME280;6591;51.446;5.404;2023-05-11T04:16:31;101120.38;;;17.85;60.62
13050;BME280;6591;51.446;5.404;2023-05-11T04:19:00;101118.50;;;17.85;60.77
13050;BME280;6591;51.446;5.404;2023-05-11T04:21:28;101120.13;;;17.88;61.02
13050;BME280;6591;51.446;5.404;2023-05-11T04:23:55;101119.38;;;17.86;61.03
13050;BME280;6591;51.446;5.404;2023-05-11T04:26:23;101126.38;;;17.88;60.71
13050;BME280;6591;51.446;5.404;2023-05-11T04:28:50;101129.78;;;17.90;60.74
13050;BME280;6591;51.446;5.404;2023-05-11T04:31:17;101138.72;;;17.91;61.12
13050;BME280;6591;51.446;5.404;2023-05-11T04:33:45;101133.13;;;17.94;61.05
13050;BME280;6591;51.446;5.404;2023-05-11T04:36:12;101132.38;;;17.92;61.00
13050;BME280;6591;51.446;5.404;2023-05-11T04:38:39;101125.94;;;17.94;60.96
13050;BME280;6591;51.446;5.404;2023-05-11T04:41:08;101126.81;;;17.95;61.08
13050;BME280;6591;51.446;5.404;2023-05-11T04:43:37;101126.56;;;17.98;61.24
13050;BME280;6591;51.446;5.404;2023-05-11T04:46:07;101128.19;;;18.00;61.36
13050;BME280;6591;51.446;5.404;2023-05-11T04:48:34;101126.34;;;18.01;61.16
13050;BME280;6591;51.446;5.404;2023-05-11T04:51:05;101134.41;;;18.01;61.13
13050;BME280;6591;51.446;5.404;2023-05-11T04:53:37;101139.47;;;18.05;61.39
13050;BME280;6591;51.446;5.404;2023-05-11T04:56:04;101145.47;;;18.09;61.46
13050;BME280;6591;51.446;5.404;2023-05-11T04:58:32;101147.81;;;18.13;61.62
13050;BME280;6591;51.446;5.404;2023-05-11T05:00:59;101144.69;;;18.19;61.96
13050;BME280;6591;51.446;5.404;2023-05-11T05:03:26;101151.47;;;18.25;62.10
13050;BME280;6591;51.446;5.404;2023-05-11T05:05:54;101146.50;;;18.32;62.17
13050;BME280;6591;51.446;5.404;2023-05-11T05:08:21;101149.72;;;18.37;61.87
13050;BME280;6591;51.446;5.404;2023-05-11T05:10:48;101155.50;;;18.43;61.79
13050;BME280;6591;51.446;5.404;2023-05-11T05:13:15;101157.00;;;18.47;62.02
13050;BME280;6591;51.446;5.404;2023-05-11T05:15:45;101153.13;;;18.51;61.97
13050;BME280;6591;51.446;5.404;2023-05-11T05:18:12;101157.31;;;18.55;61.64
13050;BME280;6591;51.446;5.404;2023-05-11T05:20:40;101166.88;;;18.59;61.56
13050;BME280;6591;51.446;5.404;2023-05-11T05:23:07;101163.84;;;18.64;61.97
13050;BME280;6591;51.446;5.404;2023-05-11T05:25:34;101161.66;;;18.69;62.15
13050;BME280;6591;51.446;5.404;2023-05-11T05:28:01;101165.75;;;18.75;62.09
13050;BME280;6591;51.446;5.404;2023-05-11T05:30:28;101171.28;;;18.84;62.30
13050;BME280;6591;51.446;5.404;2023-05-11T05:32:56;101162.66;;;18.92;62.42
13050;BME280;6591;51.446;5.404;2023-05-11T05:35:24;101168.09;;;19.03;62.63
13050;BME280;6591;51.446;5.404;2023-05-11T05:37:51;101168.38;;;19.11;62.78
13050;BME280;6591;51.446;5.404;2023-05-11T05:40:19;101167.69;;;19.20;62.54
13050;BME280;6591;51.446;5.404;2023-05-11T05:42:50;101174.19;;;19.29;62.60
13050;BME280;6591;51.446;5.404;2023-05-11T05:45:20;101174.44;;;19.37;62.63
13050;BME280;6591;51.446;5.404;2023-05-11T05:47:48;101174.78;;;19.45;62.46
13050;BME280;6591;51.446;5.404;2023-05-11T05:50:18;101177.84;;;19.52;62.53
13050;BME280;6591;51.446;5.404;2023-05-11T05:52:45;101182.53;;;19.61;62.64
13050;BME280;6591;51.446;5.404;2023-05-11T05:55:12;101178.13;;;19.71;63.24
13050;BME280;6591;51.446;5.404;2023-05-11T05:57:41;101179.03;;;19.82;62.99
13050;BME280;6591;51.446;5.404;2023-05-11T06:00:09;101185.41;;;19.93;62.94
13050;BME280;6591;51.446;5.404;2023-05-11T06:02:47;101183.81;;;20.01;62.99
13050;BME280;6591;51.446;5.404;2023-05-11T06:05:21;101184.69;;;20.13;62.74
13050;BME280;6591;51.446;5.404;2023-05-11T06:07:48;101181.13;;;20.23;62.94
13050;BME280;6591;51.446;5.404;2023-05-11T06:10:35;101192.91;;;20.34;62.60
13050;BME280;6591;51.446;5.404;2023-05-11T06:13:02;101185.91;;;20.42;62.38
13050;BME280;6591;51.446;5.404;2023-05-11T06:15:29;101190.94;;;20.47;62.04
13050;BME280;6591;51.446;5.404;2023-05-11T06:18:03;101187.03;;;20.51;61.63
13050;BME280;6591;51.446;5.404;2023-05-11T06:20:31;101189.47;;;20.54;61.92
13050;BME280;6591;51.446;5.404;2023-05-11T06:22:58;101200.00;;;20.57;61.79
13050;BME280;6591;51.446;5.404;2023-05-11T06:25:26;101195.09;;;20.62;61.81
13050;BME280;6591;51.446;5.404;2023-05-11T06:27:53;101200.25;;;20.65;61.80
13050;BME280;6591;51.446;5.404;2023-05-11T06:30:21;101195.31;;;20.70;62.42
13050;BME280;6591;51.446;5.404;2023-05-11T06:32:51;101195.81;;;20.75;61.92
13050;BME280;6591;51.446;5.404;2023-05-11T06:35:20;101194.81;;;20.76;61.70
13050;BME280;6591;51.446;5.404;2023-05-11T06:37:49;101198.38;;;20.77;61.35
13050;BME280;6591;51.446;5.404;2023-05-11T06:40:17;101200.94;;;20.78;61.10
13050;BME280;6591;51.446;5.404;2023-05-11T06:42:44;101198.22;;;20.78;60.92
13050;BME280;6591;51.446;5.404;2023-05-11T06:45:12;101204.50;;;20.79;60.86
13050;BME280;6591;51.446;5.404;2023-05-11T06:47:41;101207.47;;;20.76;60.87
13050;BME280;6591;51.446;5.404;2023-05-11T06:50:08;101212.00;;;20.75;61.16
13050;BME280;6591;51.446;5.404;2023-05-11T06:52:37;101207.56;;;20.74;60.72
13050;BME280;6591;51.446;5.404;2023-05-11T06:55:04;101205.84;;;20.73;60.77
13050;BME280;6591;51.446;5.404;2023-05-11T06:57:31;101216.81;;;20.71;60.79
13050;BME280;6591;51.446;5.404;2023-05-11T06:59:58;101216.06;;;20.69;60.67
13050;BME280;6591;51.446;5.404;2023-05-11T07:02:25;101213.47;;;20.68;60.51
13050;BME280;6591;51.446;5.404;2023-05-11T07:04:52;101213.63;;;20.66;60.93
13050;BME280;6591;51.446;5.404;2023-05-11T07:07:20;101222.81;;;20.64;60.47
13050;BME280;6591;51.446;5.404;2023-05-11T07:09:48;101223.06;;;20.61;60.45
13050;BME280;6591;51.446;5.404;2023-05-11T07:12:15;101228.69;;;20.58;60.72
13050;BME280;6591;51.446;5.404;2023-05-11T07:14:42;101217.91;;;20.58;60.66
13050;BME280;6591;51.446;5.404;2023-05-11T07:17:09;101230.69;;;20.56;60.35
13050;BME280;6591;51.446;5.404;2023-05-11T07:19:36;101228.09;;;20.54;60.61
13050;BME280;6591;51.446;5.404;2023-05-11T07:22:03;101232.91;;;20.51;60.18
13050;BME280;6591;51.446;5.404;2023-05-11T07:24:31;101223.19;;;20.48;60.59
13050;BME280;6591;51.446;5.404;2023-05-11T07:26:58;101222.59;;;20.45;60.46
13050;BME280;6591;51.446;5.404;2023-05-11T07:29:26;101231.66;;;20.44;60.29
13050;BME280;6591;51.446;5.404;2023-05-11T07:31:53;101230.06;;;20.41;60.55
13050;BME280;6591;51.446;5.404;2023-05-11T07:34:20;101226.75;;;20.38;60.46
13050;BME280;6591;51.446;5.404;2023-05-11T07:36:47;101227.88;;;20.35;60.33
13050;BME280;6591;51.446;5.404;2023-05-11T07:39:14;101233.13;;;20.37;60.63
13050;BME280;6591;51.446;5.404;2023-05-11T07:41:42;101234.63;;;20.41;60.91
13050;BME280;6591;51.446;5.404;2023-05-11T07:44:09;101230.78;;;20.43;61.12
13050;BME280;6591;51.446;5.404;2023-05-11T07:46:37;101243.19;;;20.46;61.12
13050;BME280;6591;51.446;5.404;2023-05-11T07:49:04;101228.84;;;20.45;61.04
13050;BME280;6591;51.446;5.404;2023-05-11T07:51:44;101235.81;;;20.48;60.86
13050;BME280;6591;51.446;5.404;2023-05-11T07:54:11;101241.00;;;20.51;60.93
13050;BME280;6591;51.446;5.404;2023-05-11T07:56:38;101242.56;;;20.53;60.60
13050;BME280;6591;51.446;5.404;2023-05-11T07:59:05;101243.44;;;20.54;60.75
13050;BME280;6591;51.446;5.404;2023-05-11T08:01:32;101243.44;;;20.54;60.53
13050;BME280;6591;51.446;5.404;2023-05-11T08:04:00;101244.19;;;20.56;60.31
13050;BME280;6591;51.446;5.404;2023-05-11T08:06:27;101250.28;;;20.58;61.05
13050;BME280;6591;51.446;5.404;2023-05-11T08:08:54;101250.06;;;20.61;61.01
13050;BME280;6591;51.446;5.404;2023-05-11T08:11:21;101252.75;;;20.61;60.88
13050;BME280;6591;51.446;5.404;2023-05-11T08:13:48;101250.78;;;20.63;60.80
13050;BME280;6591;51.446;5.404;2023-05-11T08:16:15;101247.97;;;20.64;60.83
13050;BME280;6591;51.446;5.404;2023-05-11T08:18:43;101251.03;;;20.71;61.26
13050;BME280;6591;51.446;5.404;2023-05-11T08:21:10;101244.88;;;20.80;61.65
13050;BME280;6591;51.446;5.404;2023-05-11T08:23:37;101251.00;;;20.93;62.09
13050;BME280;6591;51.446;5.404;2023-05-11T08:26:04;101250.59;;;21.09;62.18
13050;BME280;6591;51.446;5.404;2023-05-11T08:28:31;101255.84;;;21.22;62.46
13050;BME280;6591;51.446;5.404;2023-05-11T08:31:00;101259.25;;;21.35;62.01
13050;BME280;6591;51.446;5.404;2023-05-11T08:33:27;101258.47;;;21.44;61.30
13050;BME280;6591;51.446;5.404;2023-05-11T08:35:57;101249.72;;;21.51;61.23
13050;BME280;6591;51.446;5.404;2023-05-11T08:38:24;101250.78;;;21.60;61.07
13050;BME280;6591;51.446;5.404;2023-05-11T08:40:51;101252.31;;;21.74;61.21
13050;BME280;6591;51.446;5.404;2023-05-11T08:43:19;101245.56;;;21.89;61.67
13050;BME280;6591;51.446;5.404;2023-05-11T08:45:52;101250.53;;;22.05;61.56
13050;BME280;6591;51.446;5.404;2023-05-11T08:48:22;101248.34;;;22.19;61.25
13050;BME280;6591;51.446;5.404;2023-05-11T08:50:50;101249.31;;;22.39;61.47
13050;BME280;6591;51.446;5.404;2023-05-11T08:53:17;101242.25;;;22.57;61.36
13050;BME280;6591;51.446;5.404;2023-05-11T08:55:45;101253.22;;;22.76;60.93
13050;BME280;6591;51.446;5.404;2023-05-11T08:58:14;101240.69;;;22.95;60.90
13050;BME280;6591;51.446;5.404;2023-05-11T09:00:45;101257.28;;;23.11;60.24
13050;BME280;6591;51.446;5.404;2023-05-11T09:03:18;101256.84;;;23.25;60.11
13050;BME280;6591;51.446;5.404;2023-05-11T09:05:46;101258.47;;;23.47;60.68
13050;BME280;6591;51.446;5.404;2023-05-11T09:08:14;101255.19;;;23.72;61.29
13050;BME280;6591;51.446;5.404;2023-05-11T09:10:44;101256.88;;;23.92;61.31
13050;BME280;6591;51.446;5.404;2023-05-11T09:13:12;101256.97;;;24.10;59.86
13050;BME280;6591;51.446;5.404;2023-05-11T09:15:39;101257.13;;;24.18;59.31
13050;BME280;6591;51.446;5.404;2023-05-11T09:18:06;101262.13;;;24.23;58.90
13050;BME280;6591;51.446;5.404;2023-05-11T09:20:33;101263.41;;;24.28;58.84
13050;BME280;6591;51.446;5.404;2023-05-11T09:23:00;101260.53;;;24.30;58.53
13050;BME280;6591;51.446;5.404;2023-05-11T09:25:31;101264.41;;;24.27;57.95
13050;BME280;6591;51.446;5.404;2023-05-11T09:28:00;101266.41;;;24.25;57.88
13050;BME280;6591;51.446;5.404;2023-05-11T09:30:27;101266.00;;;24.20;57.87
13050;BME280;6591;51.446;5.404;2023-05-11T09:32:57;101262.69;;;24.17;58.09
13050;BME280;6591;51.446;5.404;2023-05-11T09:35:30;101268.25;;;24.15;57.83
13050;BME280;6591;51.446;5.404;2023-05-11T09:40:41;101270.13;;;24.05;57.02
13050;BME280;6591;51.446;5.404;2023-05-11T09:43:30;101269.00;;;23.98;57.14
13050;BME280;6591;51.446;5.404;2023-05-11T09:45:58;101259.88;;;23.99;57.53
13050;BME280;6591;51.446;5.404;2023-05-11T09:48:33;101262.13;;;24.03;57.88
13050;BME280;6591;51.446;5.404;2023-05-11T09:51:06;101265.44;;;24.07;58.23
13050;BME280;6591;51.446;5.404;2023-05-11T09:53:43;101265.97;;;24.11;58.15
13050;BME280;6591;51.446;5.404;2023-05-11T09:56:12;101266.28;;;24.17;57.72
13050;BME280;6591;51.446;5.404;2023-05-11T09:58:53;101259.56;;;24.21;57.61
13050;BME280;6591;51.446;5.404;2023-05-11T10:01:30;101262.81;;;24.25;57.46
13050;BME280;6591;51.446;5.404;2023-05-11T10:04:02;101262.09;;;24.32;57.68
13050;BME280;6591;51.446;5.404;2023-05-11T10:06:51;101261.06;;;24.43;58.14
13050;BME280;6591;51.446;5.404;2023-05-11T10:09:25;101259.72;;;24.57;58.18
13050;BME280;6591;51.446;5.404;2023-05-11T10:11:55;101256.22;;;24.74;58.80
13050;BME280;6591;51.446;5.404;2023-05-11T10:14:26;101259.16;;;24.90;58.18
13050;BME280;6591;51.446;5.404;2023-05-11T10:16:56;101261.50;;;25.03;57.58
13050;BME280;6591;51.446;5.404;2023-05-11T10:19:23;101259.13;;;25.17;57.74
13050;BME280;6591;51.446;5.404;2023-05-11T10:21:51;101262.19;;;25.32;57.52
13050;BME280;6591;51.446;5.404;2023-05-11T10:24:18;101266.91;;;25.48;58.12
13050;BME280;6591;51.446;5.404;2023-05-11T10:26:47;101265.38;;;25.63;57.42
13050;BME280;6591;51.446;5.404;2023-05-11T10:29:18;101269.72;;;25.73;57.20
13050;BME280;6591;51.446;5.404;2023-05-11T10:31:47;101269.50;;;25.85;56.80
13050;BME280;6591;51.446;5.404;2023-05-11T10:34:15;101263.41;;;25.91;56.69
13050;BME280;6591;51.446;5.404;2023-05-11T10:36:45;101267.53;;;25.95;56.24
13050;BME280;6591;51.446;5.404;2023-05-11T10:39:12;101264.81;;;25.95;55.35
13050;BME280;6591;51.446;5.404;2023-05-11T10:42:34;101270.13;;;25.79;54.63
13050;BME280;6591;51.446;5.404;2023-05-11T10:54:05;101264.72;;;25.33;55.31
13050;BME280;6591;51.446;5.404;2023-05-11T11:01:11;101253.22;;;25.40;56.08
13050;BME280;6591;51.446;5.404;2023-05-11T11:04:03;101253.00;;;25.51;55.78
13050;BME280;6591;51.446;5.404;2023-05-11T11:06:37;101246.81;;;25.58;55.49
13050;BME280;6591;51.446;5.404;2023-05-11T11:09:14;101247.97;;;25.56;54.53
13050;BME280;6591;51.446;5.404;2023-05-11T11:11:46;101243.06;;;25.59;55.16
13050;BME280;6591;51.446;5.404;2023-05-11T11:14:17;101252.47;;;25.65;55.27
13050;BME280;6591;51.446;5.404;2023-05-11T11:17:33;101241.44;;;25.66;55.34
13050;BME280;6591;51.446;5.404;2023-05-11T11:20:04;101245.47;;;25.80;56.00
13050;BME280;6591;51.446;5.404;2023-05-11T11:25:12;101247.66;;;26.02;55.37
13050;BME280;6591;51.446;5.404;2023-05-11T11:30:27;101239.59;;;26.19;54.53
13050;BME280;6591;51.446;5.404;2023-05-11T11:35:46;101229.63;;;26.53;55.86
13050;BME280;6591;51.446;5.404;2023-05-11T11:38:18;101234.16;;;26.78;55.58
13050;BME280;6591;51.446;5.404;2023-05-11T11:40:50;101222.47;;;27.02;55.47
13050;BME280;6591;51.446;5.404;2023-05-11T11:43:30;101225.78;;;27.30;55.21
13050;BME280;6591;51.446;5.404;2023-05-11T11:46:25;101225.31;;;27.59;54.99
13050;BME280;6591;51.446;5.404;2023-05-11T11:49:08;101220.38;;;27.78;54.25
13050;BME280;6591;51.446;5.404;2023-05-11T11:51:35;101220.38;;;27.95;54.01
13050;BME280;6591;51.446;5.404;2023-05-11T11:54:06;101211.66;;;27.99;53.28
13050;BME280;6591;51.446;5.404;2023-05-11T11:56:39;101216.75;;;28.02;52.94
13050;BME280;6591;51.446;5.404;2023-05-11T11:59:06;101218.47;;;28.03;52.70
13050;BME280;6591;51.446;5.404;2023-05-11T12:01:38;101222.38;;;28.01;52.55
13050;BME280;6591;51.446;5.404;2023-05-11T12:04:36;101224.63;;;27.97;52.49
13050;BME280;6591;51.446;5.404;2023-05-11T12:07:07;101222.72;;;28.06;52.35
13050;BME280;6591;51.446;5.404;2023-05-11T12:09:37;101223.94;;;28.19;52.69
13050;BME280;6591;51.446;5.404;2023-05-11T12:12:05;101223.56;;;28.31;52.22
13050;BME280;6591;51.446;5.404;2023-05-11T12:14:34;101219.78;;;28.40;51.83
13050;BME280;6591;51.446;5.404;2023-05-11T12:17:04;101218.38;;;28.52;51.81
13050;BME280;6591;51.446;5.404;2023-05-11T12:19:31;101222.91;;;28.68;52.28
13050;BME280;6591;51.446;5.404;2023-05-11T12:21:58;101223.38;;;28.79;50.75
13050;BME280;6591;51.446;5.404;2023-05-11T12:24:26;101218.06;;;28.86;50.15
13050;BME280;6591;51.446;5.404;2023-05-11T12:26:56;101214.97;;;28.89;50.04
13050;BME280;6591;51.446;5.404;2023-05-11T12:29:23;101212.19;;;28.97;50.60
13050;BME280;6591;51.446;5.404;2023-05-11T12:31:51;101209.69;;;29.10;50.95
13050;BME280;6591;51.446;5.404;2023-05-11T12:34:21;101200.97;;;29.15;49.71
13050;BME280;6591;51.446;5.404;2023-05-11T12:36:53;101206.44;;;29.15;49.37
13050;BME280;6591;51.446;5.404;2023-05-11T12:39:25;101205.75;;;29.13;49.57
13050;BME280;6591;51.446;5.404;2023-05-11T12:41:56;101200.03;;;29.22;49.63
13050;BME280;6591;51.446;5.404;2023-05-11T12:44:25;101208.84;;;29.40;50.68
13050;BME280;6591;51.446;5.404;2023-05-11T12:46:53;101204.00;;;29.65;50.82
13050;BME280;6591;51.446;5.404;2023-05-11T12:49:24;101202.59;;;29.92;49.96
13050;BME280;6591;51.446;5.404;2023-05-11T12:52:02;101206.09;;;30.15;49.32
13050;BME280;6591;51.446;5.404;2023-05-11T12:54:48;101196.94;;;30.08;47.18
13050;BME280;6591;51.446;5.404;2023-05-11T12:57:26;101198.91;;;30.00;47.12
13050;BME280;6591;51.446;5.404;2023-05-11T13:00:14;101197.34;;;29.82;46.64
13050;BME280;6591;51.446;5.404;2023-05-11T13:02:54;101196.09;;;29.70;47.41
13050;BME280;6591;51.446;5.404;2023-05-11T13:05:25;101198.34;;;29.67;48.05
13050;BME280;6591;51.446;5.404;2023-05-11T13:08:02;101190.44;;;29.72;48.18
13050;BME280;6591;51.446;5.404;2023-05-11T13:10:30;101187.59;;;29.80;48.33
13050;BME280;6591;51.446;5.404;2023-05-11T13:12:57;101189.94;;;29.91;48.50
13050;BME280;6591;51.446;5.404;2023-05-11T13:15:25;101179.94;;;29.98;47.88
13050;BME280;6591;51.446;5.404;2023-05-11T13:18:00;101189.75;;;30.07;47.57
13050;BME280;6591;51.446;5.404;2023-05-11T13:20:30;101187.75;;;30.16;48.01
13050;BME280;6591;51.446;5.404;2023-05-11T13:23:15;101173.69;;;30.34;47.92
13050;BME280;6591;51.446;5.404;2023-05-11T13:28:17;101168.94;;;30.71;46.96
13050;BME280;6591;51.446;5.404;2023-05-11T13:30:45;101175.28;;;30.93;46.71
13050;BME280;6591;51.446;5.404;2023-05-11T13:33:12;101171.44;;;31.02;46.46
13050;BME280;6591;51.446;5.404;2023-05-11T13:35:41;101167.69;;;31.10;46.29
13050;BME280;6591;51.446;5.404;2023-05-11T13:38:09;101167.66;;;31.25;45.85
13050;BME280;6591;51.446;5.404;2023-05-11T13:40:38;101163.72;;;31.34;46.05
13050;BME280;6591;51.446;5.404;2023-05-11T13:43:05;101162.03;;;31.33;44.63
13050;BME280;6591;51.446;5.404;2023-05-11T13:45:32;101156.09;;;31.29;44.96
13050;BME280;6591;51.446;5.404;2023-05-11T13:47:59;101160.19;;;31.40;45.76